createdAt,value
2023-05-24T00:00:13.152Z,81.60
2023-05-24T00:02:42.633Z,81.50
2023-05-24T00:05:12.105Z,81.60
2023-05-24T00:07:39.927Z,81.60
2023-05-24T00:10:09.112Z,81.70
2023-05-24T00:12:36.911Z,81.70
2023-05-24T00:15:05.338Z,81.80
2023-05-24T00:17:34.605Z,81.70
2023-05-24T00:20:03.817Z,81.70
2023-05-24T00:22:34.276Z,81.90
2023-05-24T00:25:02.061Z,81.90
2023-05-24T00:27:29.848Z,81.80
2023-05-24T00:29:57.748Z,81.90
2023-05-24T00:32:25.577Z,82.00
2023-05-24T00:34:53.379Z,81.90
2023-05-24T00:37:21.565Z,82.70
2023-05-24T00:39:50.710Z,82.00
2023-05-24T00:42:18.569Z,82.00
2023-05-24T00:44:46.342Z,82.00
2023-05-24T00:47:14.150Z,82.60
2023-05-24T00:49:42.088Z,82.00
2023-05-24T00:52:09.972Z,81.90
2023-05-24T00:54:38.323Z,81.90
2023-05-24T00:57:08.031Z,82.40
2023-05-24T00:59:36.122Z,82.10
2023-05-24T01:02:03.931Z,82.20
2023-05-24T01:04:33.116Z,82.30
2023-05-24T01:07:10.390Z,82.30
2023-05-24T01:10:01.660Z,82.30
2023-05-24T01:12:39.962Z,82.40
2023-05-24T01:15:16.020Z,82.40
2023-05-24T01:17:53.003Z,82.40
2023-05-24T01:20:22.483Z,82.40
2023-05-24T01:23:13.689Z,82.40
2023-05-24T01:26:01.790Z,82.40
2023-05-24T01:28:32.653Z,82.30
2023-05-24T01:31:01.639Z,82.40
2023-05-24T01:33:29.954Z,82.30
2023-05-24T01:35:57.711Z,82.40
2023-05-24T01:38:25.505Z,82.60
2023-05-24T01:41:00.031Z,82.60
2023-05-24T01:43:36.441Z,82.60
2023-05-24T01:46:10.647Z,82.60
2023-05-24T01:48:45.924Z,82.70
2023-05-24T01:51:19.472Z,82.50
2023-05-24T01:53:49.503Z,82.70
2023-05-24T01:56:20.477Z,82.70
2023-05-24T01:58:53.798Z,82.70
2023-05-24T02:01:22.175Z,82.80
2023-05-24T02:03:51.338Z,82.70
2023-05-24T02:06:19.229Z,82.80
2023-05-24T02:08:47.203Z,82.90
2023-05-24T02:11:15.001Z,82.90
2023-05-24T02:13:42.779Z,82.90
2023-05-24T02:16:11.914Z,83.00
2023-05-24T02:18:40.104Z,83.00
2023-05-24T02:21:07.921Z,83.00
2023-05-24T02:23:36.195Z,83.20
2023-05-24T02:26:04.203Z,83.20
2023-05-24T02:28:32.309Z,83.30
2023-05-24T02:31:00.190Z,83.40
2023-05-24T02:33:30.148Z,83.40
2023-05-24T02:35:58.138Z,83.40
2023-05-24T02:38:26.415Z,83.50
2023-05-24T02:40:54.179Z,83.40
2023-05-24T02:43:21.979Z,83.40
2023-05-24T02:45:49.762Z,83.40
2023-05-24T02:48:17.674Z,83.50
2023-05-24T02:50:46.871Z,83.60
2023-05-24T02:53:14.723Z,83.70
2023-05-24T02:55:43.896Z,83.60
2023-05-24T02:58:12.080Z,83.40
2023-05-24T03:00:40.080Z,83.40
2023-05-24T03:03:08.015Z,83.40
2023-05-24T03:05:35.925Z,83.40
2023-05-24T03:08:06.286Z,83.50
2023-05-24T03:10:34.330Z,83.60
2023-05-24T03:13:02.120Z,83.80
2023-05-24T03:15:29.881Z,83.70
2023-05-24T03:17:57.794Z,83.70
2023-05-24T03:20:25.832Z,83.80
2023-05-24T03:22:53.618Z,83.80
2023-05-24T03:25:22.990Z,83.80
2023-05-24T03:27:50.753Z,83.80
2023-05-24T03:30:18.555Z,83.80
2023-05-24T03:32:46.343Z,83.70
2023-05-24T03:35:14.212Z,83.80
2023-05-24T03:37:42.018Z,83.90
2023-05-24T03:40:10.445Z,83.80
2023-05-24T03:42:39.774Z,84.00
2023-05-24T03:45:08.707Z,83.90
2023-05-24T03:47:36.540Z,83.90
2023-05-24T03:50:04.591Z,84.00
2023-05-24T03:52:32.360Z,84.00
2023-05-24T03:55:00.165Z,84.10
2023-05-24T03:57:27.965Z,84.00
2023-05-24T03:59:57.089Z,84.10
2023-05-24T04:02:24.902Z,84.00
2023-05-24T04:04:53.184Z,84.20
2023-05-24T04:07:24.360Z,84.30
2023-05-24T04:09:52.182Z,84.40
2023-05-24T04:12:19.987Z,84.40
2023-05-24T04:14:47.754Z,84.20
2023-05-24T04:17:16.996Z,84.30
2023-05-24T04:19:46.677Z,84.30
2023-05-24T04:22:14.442Z,84.40
2023-05-24T04:24:42.227Z,84.40
2023-05-24T04:27:10.808Z,85.10
2023-05-24T04:29:40.156Z,84.40
2023-05-24T04:32:10.031Z,84.50
2023-05-24T04:34:42.816Z,84.40
2023-05-24T04:37:10.749Z,84.50
2023-05-24T04:39:38.627Z,84.40
2023-05-24T04:42:07.296Z,84.40
2023-05-24T04:44:35.081Z,85.20
2023-05-24T04:47:03.763Z,84.50
2023-05-24T04:49:31.711Z,84.60
2023-05-24T04:52:01.030Z,84.60
2023-05-24T04:54:28.803Z,84.70
2023-05-24T04:56:56.669Z,84.60
2023-05-24T04:59:24.437Z,84.60
2023-05-24T05:01:52.367Z,84.80
2023-05-24T05:04:20.310Z,84.80
2023-05-24T05:06:49.014Z,84.80
2023-05-24T05:09:18.919Z,84.80
2023-05-24T05:11:48.129Z,84.80
2023-05-24T05:14:16.127Z,84.80
2023-05-24T05:16:44.622Z,84.80
2023-05-24T05:19:12.618Z,85.00
2023-05-24T05:21:40.572Z,84.90
2023-05-24T05:24:08.447Z,84.90
2023-05-24T05:26:37.596Z,85.00
2023-05-24T05:29:05.380Z,85.00
2023-05-24T05:31:33.252Z,85.00
2023-05-24T05:34:01.026Z,85.00
2023-05-24T05:36:28.836Z,84.90
2023-05-24T05:38:56.627Z,85.00
2023-05-24T05:41:24.503Z,85.10
2023-05-24T05:43:53.601Z,85.10
2023-05-24T05:46:22.225Z,85.20
2023-05-24T05:48:50.095Z,85.20
2023-05-24T05:51:17.838Z,85.10
2023-05-24T05:53:45.614Z,85.10
2023-05-24T05:56:13.395Z,85.20
2023-05-24T05:58:41.210Z,85.20
2023-05-24T06:01:10.330Z,85.00
2023-05-24T06:03:38.236Z,85.00
2023-05-24T06:06:06.382Z,85.20
2023-05-24T06:08:35.322Z,85.30
2023-05-24T06:11:03.664Z,85.30
2023-05-24T06:13:32.908Z,85.30
2023-05-24T06:16:01.125Z,85.40
2023-05-24T06:18:30.576Z,85.30
2023-05-24T06:20:58.473Z,85.20
2023-05-24T06:23:26.489Z,85.40
2023-05-24T06:25:54.569Z,85.20
2023-05-24T06:28:22.694Z,85.10
2023-05-24T06:30:50.609Z,85.10
2023-05-24T06:33:18.359Z,85.20
2023-05-24T06:35:47.726Z,85.30
2023-05-24T06:38:16.003Z,85.30
2023-05-24T06:40:43.817Z,85.30
2023-05-24T06:43:11.784Z,85.30
2023-05-24T06:45:39.552Z,85.20
2023-05-24T06:48:07.822Z,85.10
2023-05-24T06:50:36.165Z,85.00
2023-05-24T06:53:05.316Z,85.10
2023-05-24T06:55:33.108Z,85.10
2023-05-24T06:58:00.885Z,85.10
2023-05-24T07:00:28.638Z,85.20
2023-05-24T07:02:57.176Z,85.30
2023-05-24T07:05:24.994Z,85.30
2023-05-24T07:07:52.860Z,85.40
2023-05-24T07:10:22.025Z,85.30
2023-05-24T07:12:49.847Z,84.20
2023-05-24T07:15:17.616Z,84.10
2023-05-24T07:17:45.622Z,83.90
2023-05-24T07:20:13.882Z,83.70
2023-05-24T07:22:41.964Z,83.60
2023-05-24T07:25:10.695Z,83.90
2023-05-24T07:27:39.914Z,83.60
2023-05-24T07:30:19.765Z,83.60
2023-05-24T07:32:57.068Z,83.80
2023-05-24T07:35:24.884Z,83.40
2023-05-24T07:37:52.759Z,83.10
2023-05-24T07:40:20.523Z,83.10
2023-05-24T07:42:49.768Z,83.30
2023-05-24T07:45:17.543Z,83.20
2023-05-24T07:47:45.435Z,83.40
2023-05-24T07:50:13.244Z,83.10
2023-05-24T07:52:41.078Z,82.90
2023-05-24T07:55:09.664Z,82.70
2023-05-24T07:57:37.446Z,82.60
2023-05-24T08:00:12.742Z,82.50
2023-05-24T08:02:40.577Z,82.60
2023-05-24T08:05:10.019Z,82.40
2023-05-24T08:07:38.808Z,81.80
2023-05-24T08:10:07.922Z,81.90
2023-05-24T08:12:35.768Z,82.10
2023-05-24T08:15:03.650Z,82.20
2023-05-24T08:17:32.792Z,82.30
2023-05-24T08:20:01.045Z,82.10
2023-05-24T08:22:28.911Z,82.00
2023-05-24T08:24:57.383Z,82.10
2023-05-24T08:27:28.605Z,82.20
2023-05-24T08:29:57.198Z,82.30
2023-05-24T08:32:25.146Z,83.00
2023-05-24T08:35:00.749Z,82.50
2023-05-24T08:37:34.964Z,82.50
2023-05-24T08:40:04.143Z,82.50
2023-05-24T08:42:32.680Z,82.10
2023-05-24T08:45:05.526Z,82.10
2023-05-24T08:47:34.410Z,82.20
2023-05-24T08:50:04.127Z,82.30
2023-05-24T08:52:33.526Z,82.00
2023-05-24T08:55:01.893Z,81.90
2023-05-24T08:57:30.762Z,81.70
2023-05-24T08:59:59.173Z,81.50
2023-05-24T09:02:28.446Z,81.40
2023-05-24T09:04:56.928Z,81.30
2023-05-24T09:07:26.707Z,80.20
2023-05-24T09:09:58.525Z,80.40
2023-05-24T09:12:37.173Z,80.20
2023-05-24T09:15:07.192Z,80.10
2023-05-24T09:17:36.273Z,80.50
2023-05-24T09:20:06.896Z,80.50
2023-05-24T09:22:40.342Z,80.40
2023-05-24T09:25:10.806Z,80.00
2023-05-24T09:27:38.818Z,80.50
2023-05-24T09:30:10.731Z,80.80
2023-05-24T09:32:38.891Z,80.60
2023-05-24T09:35:10.426Z,80.80
2023-05-24T09:37:40.238Z,80.70
2023-05-24T09:40:18.355Z,80.50
2023-05-24T09:42:46.494Z,80.50
2023-05-24T09:45:14.438Z,80.40
2023-05-24T09:47:45.015Z,80.70
2023-05-24T09:50:14.723Z,80.80
2023-05-24T09:52:44.399Z,81.80
2023-05-24T09:55:13.606Z,80.80
2023-05-24T09:57:41.593Z,80.40
2023-05-24T10:00:17.377Z,80.20
2023-05-24T10:02:53.519Z,80.10
2023-05-24T10:05:22.164Z,80.30
2023-05-24T10:07:51.921Z,80.30
2023-05-24T10:10:19.982Z,80.30
2023-05-24T10:12:48.044Z,80.40
2023-05-24T10:15:16.340Z,80.50
2023-05-24T10:17:44.267Z,80.40
2023-05-24T10:20:13.218Z,80.40
2023-05-24T10:22:45.297Z,80.50
2023-05-24T10:25:20.104Z,80.20
2023-05-24T10:27:50.127Z,80.30
2023-05-24T10:30:24.246Z,80.60
2023-05-24T10:32:53.087Z,80.70
2023-05-24T10:35:21.333Z,80.40
2023-05-24T10:37:49.256Z,80.50
2023-05-24T10:40:25.157Z,80.00
2023-05-24T10:42:54.942Z,80.50
2023-05-24T10:45:35.652Z,80.40
2023-05-24T10:48:11.093Z,80.20
2023-05-24T10:50:39.119Z,79.60
2023-05-24T10:53:14.499Z,79.50
2023-05-24T10:55:54.840Z,79.70
2023-05-24T10:58:27.825Z,79.50
2023-05-24T11:00:56.055Z,80.00
2023-05-24T11:03:25.353Z,80.10
2023-05-24T11:05:55.330Z,79.90
2023-05-24T11:08:27.419Z,80.10
2023-05-24T11:11:23.220Z,80.40
2023-05-24T11:13:57.995Z,80.30
2023-05-24T11:16:37.128Z,79.80
2023-05-24T11:19:17.944Z,79.80
2023-05-24T11:21:47.067Z,79.70
2023-05-24T11:24:15.772Z,79.80
2023-05-24T11:26:45.236Z,79.50
2023-05-24T11:29:17.467Z,79.70
2023-05-24T11:31:52.483Z,80.10
2023-05-24T11:34:20.642Z,80.10
2023-05-24T11:36:49.276Z,79.80
2023-05-24T11:39:17.936Z,79.80
2023-05-24T11:41:48.833Z,79.90
2023-05-24T11:44:19.241Z,79.40
2023-05-24T11:46:47.597Z,79.70
2023-05-24T11:49:17.024Z,79.60
2023-05-24T11:51:45.068Z,79.50
2023-05-24T11:54:12.969Z,79.30
2023-05-24T11:56:41.077Z,79.00
2023-05-24T11:59:16.780Z,78.90
2023-05-24T12:01:45.014Z,78.50
2023-05-24T12:04:13.385Z,78.40
2023-05-24T12:06:43.342Z,78.40
2023-05-24T12:09:14.173Z,78.50
2023-05-24T12:11:43.327Z,78.40
2023-05-24T12:14:16.405Z,78.20
2023-05-24T12:16:45.470Z,78.70
2023-05-24T12:19:32.283Z,78.40
2023-05-24T12:22:02.245Z,79.10
2023-05-24T12:24:32.079Z,79.50
2023-05-24T12:27:02.996Z,79.20
2023-05-24T12:29:36.215Z,78.80
2023-05-24T12:32:04.142Z,78.80
2023-05-24T12:34:31.924Z,78.00
2023-05-24T12:37:00.827Z,77.80
2023-05-24T12:39:31.641Z,77.50
2023-05-24T12:42:01.963Z,78.20
2023-05-24T12:44:31.271Z,77.50
2023-05-24T12:47:00.969Z,77.50
2023-05-24T12:49:29.053Z,77.80
2023-05-24T12:51:57.714Z,77.80
2023-05-24T12:54:26.491Z,78.20
2023-05-24T12:56:57.021Z,77.90
2023-05-24T12:59:27.325Z,78.50
2023-05-24T13:01:55.280Z,78.40
2023-05-24T13:04:26.224Z,78.00
2023-05-24T13:06:54.433Z,78.00
2023-05-24T13:09:23.777Z,78.40
2023-05-24T13:11:52.855Z,78.40
2023-05-24T13:14:20.994Z,78.70
2023-05-24T13:16:49.440Z,78.50
2023-05-24T13:19:17.752Z,77.40
2023-05-24T13:21:47.108Z,76.90
2023-05-24T13:24:17.398Z,77.10
2023-05-24T13:26:45.377Z,77.30
2023-05-24T13:31:45.528Z,77.60
2023-05-24T13:34:13.932Z,77.50
2023-05-24T13:36:41.958Z,77.70
2023-05-24T13:41:43.388Z,78.30
2023-05-24T13:44:11.711Z,78.60
2023-05-24T13:46:40.207Z,78.70
2023-05-24T13:49:09.347Z,78.70
2023-05-24T13:51:37.512Z,78.90
2023-05-24T13:54:07.083Z,79.10
2023-05-24T13:56:37.097Z,78.40
2023-05-24T13:59:05.795Z,78.10
2023-05-24T14:01:34.256Z,78.10
2023-05-24T14:04:03.346Z,78.30
2023-05-24T14:06:31.259Z,78.20
2023-05-24T14:08:59.342Z,78.30
2023-05-24T14:11:27.722Z,78.10
2023-05-24T14:16:27.566Z,78.50
2023-05-24T14:18:55.612Z,78.20
2023-05-24T14:21:23.470Z,77.70
2023-05-24T14:23:51.589Z,78.00
2023-05-24T14:26:20.353Z,78.00
2023-05-24T14:28:48.133Z,77.90
2023-05-24T14:31:17.301Z,77.80
2023-05-24T14:33:45.154Z,77.90
2023-05-24T14:36:12.910Z,78.20
2023-05-24T14:38:40.774Z,78.50
2023-05-24T14:41:09.164Z,78.30
2023-05-24T14:43:37.801Z,78.00
2023-05-24T14:46:05.993Z,77.70
2023-05-24T14:48:35.268Z,76.90
2023-05-24T14:51:03.048Z,77.10
2023-05-24T14:53:30.807Z,77.20
2023-05-24T14:55:58.612Z,77.20
2023-05-24T14:58:27.066Z,77.20
2023-05-24T15:00:55.073Z,77.40
2023-05-24T15:03:23.002Z,77.40
2023-05-24T15:05:52.296Z,77.50
2023-05-24T15:08:20.060Z,77.80
2023-05-24T15:10:47.887Z,77.50
2023-05-24T15:13:15.679Z,77.30
2023-05-24T15:15:44.157Z,77.00
2023-05-24T15:18:12.050Z,76.90
2023-05-24T15:20:39.977Z,77.20
2023-05-24T15:23:10.629Z,77.40
2023-05-24T15:25:38.646Z,77.70
2023-05-24T15:28:06.522Z,77.70
2023-05-24T15:30:34.298Z,77.80
2023-05-24T15:33:02.091Z,78.10
2023-05-24T15:35:29.970Z,78.20
2023-05-24T15:37:57.769Z,78.20
2023-05-24T15:40:27.044Z,78.00
2023-05-24T15:42:54.839Z,77.80
2023-05-24T15:45:22.630Z,77.90
2023-05-24T15:47:50.551Z,77.90
2023-05-24T15:50:25.866Z,78.10
2023-05-24T15:52:59.788Z,78.20
2023-05-24T15:55:29.177Z,78.10
2023-05-24T15:57:58.772Z,78.40
2023-05-24T16:00:26.838Z,78.10
2023-05-24T16:02:56.740Z,78.50
2023-05-24T16:05:24.726Z,78.30
2023-05-24T16:07:52.647Z,78.30
2023-05-24T16:10:20.425Z,78.30
2023-05-24T16:12:49.543Z,78.50
2023-05-24T16:15:17.600Z,78.50
2023-05-24T16:17:45.637Z,78.50
2023-05-24T16:20:13.582Z,78.00
2023-05-24T16:22:48.606Z,78.50
2023-05-24T16:25:16.650Z,78.50
2023-05-24T16:27:44.509Z,78.30
2023-05-24T16:30:14.300Z,78.10
2023-05-24T16:32:42.128Z,77.80
2023-05-24T16:35:10.633Z,77.90
2023-05-24T16:37:38.430Z,78.30
2023-05-24T16:40:07.685Z,78.30
2023-05-24T16:42:35.456Z,78.30
2023-05-24T16:45:03.315Z,78.40
2023-05-24T16:47:32.581Z,78.40
2023-05-24T16:50:00.441Z,78.40
2023-05-24T16:52:28.276Z,78.30
2023-05-24T16:54:56.067Z,78.40
2023-05-24T16:57:23.832Z,78.40
2023-05-24T16:59:51.589Z,78.20
2023-05-24T17:02:19.364Z,78.00
2023-05-24T17:04:48.479Z,78.10
2023-05-24T17:07:16.320Z,78.50
2023-05-24T17:09:44.735Z,78.90
2023-05-24T17:12:12.603Z,78.80
2023-05-24T17:14:41.156Z,78.70
2023-05-24T17:17:09.969Z,78.80
2023-05-24T17:19:39.777Z,79.00
2023-05-24T17:22:08.981Z,78.90
2023-05-24T17:24:36.751Z,78.90
2023-05-24T17:27:04.941Z,78.80
2023-05-24T17:29:33.163Z,78.70
2023-05-24T17:32:00.963Z,78.60
2023-05-24T17:34:28.769Z,78.50
2023-05-24T17:36:56.516Z,78.60
2023-05-24T17:39:25.777Z,78.60
2023-05-24T17:41:53.529Z,78.70
2023-05-24T17:44:21.301Z,78.80
2023-05-24T17:46:49.239Z,78.90
2023-05-24T17:49:17.129Z,78.80
2023-05-24T17:51:44.909Z,78.80
2023-05-24T17:54:12.683Z,78.80
2023-05-24T17:56:41.796Z,79.00
2023-05-24T17:59:09.933Z,78.90
2023-05-24T18:01:37.937Z,78.90
2023-05-24T18:04:08.356Z,78.90
2023-05-24T18:06:37.394Z,78.80
2023-05-24T18:09:05.323Z,79.00
2023-05-24T18:11:33.081Z,79.10
2023-05-24T18:14:03.837Z,79.30
2023-05-24T18:16:32.070Z,79.30
2023-05-24T18:18:59.870Z,79.50
2023-05-24T18:21:27.753Z,79.60
2023-05-24T18:23:55.526Z,79.70
2023-05-24T18:26:23.276Z,79.60
2023-05-24T18:28:51.018Z,79.70
2023-05-24T18:31:20.366Z,79.80
2023-05-24T18:33:48.232Z,79.90
2023-05-24T18:36:16.476Z,80.00
2023-05-24T18:38:47.122Z,80.00
2023-05-24T18:41:16.400Z,80.10
2023-05-24T18:43:44.238Z,80.10
2023-05-24T18:46:13.654Z,80.20
2023-05-24T18:48:43.085Z,80.00
2023-05-24T18:51:10.896Z,80.10
2023-05-24T18:53:39.892Z,80.10
2023-05-24T18:56:07.782Z,80.10
2023-05-24T18:58:35.540Z,80.20
2023-05-24T19:01:03.510Z,80.30
2023-05-24T19:03:31.398Z,80.40
2023-05-24T19:06:00.534Z,80.20
2023-05-24T19:08:28.311Z,80.30
2023-05-24T19:10:56.110Z,80.30
2023-05-24T19:13:23.974Z,80.40
2023-05-24T19:15:53.416Z,80.30
2023-05-24T19:18:21.494Z,80.40
2023-05-24T19:20:49.521Z,80.50
2023-05-24T19:23:18.638Z,80.60
2023-05-24T19:25:49.964Z,80.70
2023-05-24T19:28:18.077Z,80.60
2023-05-24T19:30:45.873Z,80.70
2023-05-24T19:33:13.676Z,80.70
2023-05-24T19:35:41.547Z,80.80
2023-05-24T19:38:09.574Z,80.90
2023-05-24T19:40:38.668Z,80.90
2023-05-24T19:43:06.429Z,80.90
2023-05-24T19:45:34.202Z,80.90
2023-05-24T19:48:02.039Z,80.80
2023-05-24T19:50:31.337Z,80.80
2023-05-24T19:52:59.321Z,80.90
2023-05-24T19:55:27.184Z,80.90
2023-05-24T19:57:56.291Z,81.70
2023-05-24T20:00:24.063Z,80.90
2023-05-24T20:02:51.935Z,81.00
2023-05-24T20:05:19.758Z,81.00
2023-05-24T20:07:47.740Z,81.10
2023-05-24T20:10:15.547Z,81.10
2023-05-24T20:12:43.370Z,81.20
2023-05-24T20:15:16.686Z,81.30
2023-05-24T20:17:46.189Z,81.30
2023-05-24T20:20:14.085Z,81.30
2023-05-24T20:22:41.885Z,81.30
2023-05-24T20:25:09.899Z,81.30
2023-05-24T20:27:39.230Z,81.20
2023-05-24T20:30:08.715Z,81.20
2023-05-24T20:32:37.920Z,81.10
2023-05-24T20:35:06.291Z,81.20
2023-05-24T20:37:34.090Z,81.30
2023-05-24T20:40:01.965Z,81.20
2023-05-24T20:42:29.732Z,81.30
2023-05-24T20:44:57.493Z,81.40
2023-05-24T20:47:25.831Z,81.20
2023-05-24T20:49:56.350Z,81.30
2023-05-24T20:52:24.113Z,81.30
2023-05-24T20:54:51.916Z,81.40
2023-05-24T20:57:19.853Z,81.40
2023-05-24T20:59:47.600Z,81.50
2023-05-24T21:02:15.422Z,81.60
2023-05-24T21:04:43.215Z,81.80
2023-05-24T21:07:12.358Z,82.10
2023-05-24T21:09:40.131Z,82.10
2023-05-24T21:12:08.350Z,82.20
2023-05-24T21:14:36.108Z,82.10
2023-05-24T21:17:03.936Z,82.30
2023-05-24T21:19:31.981Z,82.20
2023-05-24T21:21:59.753Z,82.30
2023-05-24T21:24:28.862Z,82.30
2023-05-24T21:26:56.709Z,82.30
2023-05-24T21:29:24.478Z,82.50
2023-05-24T21:31:52.229Z,82.50
2023-05-24T21:34:20.089Z,82.60
2023-05-24T21:36:47.867Z,82.60
2023-05-24T21:39:15.633Z,82.80
2023-05-24T21:41:44.790Z,82.80
2023-05-24T21:44:12.712Z,82.90
2023-05-24T21:46:40.569Z,82.90
2023-05-24T21:49:08.370Z,82.80
2023-05-24T21:51:36.797Z,82.80
2023-05-24T21:54:04.724Z,82.90
2023-05-24T21:56:32.490Z,82.90
2023-05-24T21:59:01.610Z,83.00
2023-05-24T22:01:29.780Z,83.10
2023-05-24T22:03:57.743Z,83.00
2023-05-24T22:06:25.573Z,83.00
2023-05-24T22:08:53.322Z,83.20
2023-05-24T22:11:21.413Z,83.10
2023-05-24T22:13:49.165Z,83.20
2023-05-24T22:16:18.360Z,83.30
2023-05-24T22:18:46.174Z,83.20
2023-05-24T22:21:14.316Z,83.30
2023-05-24T22:23:43.930Z,83.40
2023-05-24T22:26:12.760Z,83.50
2023-05-24T22:28:51.140Z,83.60
2023-05-24T22:31:21.401Z,83.60
2023-05-24T22:33:50.109Z,83.60
2023-05-24T22:36:18.679Z,83.70
2023-05-24T22:38:46.438Z,83.70
2023-05-24T22:41:14.225Z,83.80
2023-05-24T22:43:41.989Z,83.80
2023-05-24T22:46:10.814Z,83.80
2023-05-24T22:48:40.459Z,83.60
2023-05-24T22:51:09.182Z,83.60
2023-05-24T22:53:39.276Z,83.60
2023-05-24T22:56:10.240Z,83.50
2023-05-24T22:58:38.593Z,83.50
2023-05-24T23:01:06.600Z,83.60
2023-05-24T23:03:34.570Z,84.80
2023-05-24T23:06:05.445Z,84.90
2023-05-24T23:08:34.177Z,85.10
2023-05-24T23:11:09.972Z,85.90
2023-05-24T23:13:38.052Z,85.20
2023-05-24T23:16:06.394Z,85.20
2023-05-24T23:18:37.294Z,85.20
2023-05-24T23:21:06.467Z,85.20
2023-05-24T23:23:34.203Z,85.10
2023-05-24T23:26:02.005Z,85.10
2023-05-24T23:28:29.982Z,85.10
2023-05-24T23:30:57.832Z,85.10
2023-05-24T23:33:25.777Z,85.10
2023-05-24T23:35:54.632Z,85.20
2023-05-24T23:38:23.754Z,85.40
2023-05-24T23:40:51.556Z,85.30
2023-05-24T23:43:19.335Z,85.30
2023-05-24T23:45:47.084Z,85.30
2023-05-24T23:48:14.925Z,85.30
2023-05-24T23:50:53.621Z,85.30
2023-05-24T23:53:23.424Z,85.30
2023-05-24T23:55:51.213Z,85.40
2023-05-24T23:58:18.986Z,85.40
